sensor_id;sensor_type;location;lat;lon;timestamp;P1;durP1;ratioP1;P2;durP2;ratioP2
81523;SDS011;70954;49.500;10.416;2023-08-21T00:01:18;4.55;;;3.47;;
81523;SDS011;70954;49.500;10.416;2023-08-21T00:03:44;3.75;;;3.35;;
81523;SDS011;70954;49.500;10.416;2023-08-21T00:06:10;4.55;;;3.70;;
81523;SDS011;70954;49.500;10.416;2023-08-21T00:08:35;4.13;;;3.10;;
81523;SDS011;70954;49.500;10.416;2023-08-21T00:11:01;3.45;;;3.15;;
81523;SDS011;70954;49.500;10.416;2023-08-21T00:13:26;4.40;;;3.50;;
81523;SDS011;70954;49.500;10.416;2023-08-21T00:15:52;4.35;;;3.42;;
81523;SDS011;70954;49.500;10.416;2023-08-21T00:18:17;5.20;;;3.42;;
81523;SDS011;70954;49.500;10.416;2023-08-21T00:20:43;4.15;;;3.55;;
81523;SDS011;70954;49.500;10.416;2023-08-21T00:23:08;4.00;;;3.60;;
81523;SDS011;70954;49.500;10.416;2023-08-21T00:25:34;3.85;;;3.28;;
81523;SDS011;70954;49.500;10.416;2023-08-21T00:28:00;4.55;;;3.67;;
81523;SDS011;70954;49.500;10.416;2023-08-21T00:30:25;4.05;;;3.42;;
81523;SDS011;70954;49.500;10.416;2023-08-21T00:32:51;4.75;;;3.60;;
81523;SDS011;70954;49.500;10.416;2023-08-21T00:35:16;4.05;;;3.60;;
81523;SDS011;70954;49.500;10.416;2023-08-21T00:37:42;4.05;;;3.65;;
81523;SDS011;70954;49.500;10.416;2023-08-21T00:40:07;4.75;;;3.97;;
81523;SDS011;70954;49.500;10.416;2023-08-21T00:42:33;4.07;;;3.58;;
81523;SDS011;70954;49.500;10.416;2023-08-21T00:44:59;5.75;;;3.92;;
81523;SDS011;70954;49.500;10.416;2023-08-21T00:47:24;5.22;;;3.55;;
81523;SDS011;70954;49.500;10.416;2023-08-21T00:49:50;4.03;;;3.33;;
81523;SDS011;70954;49.500;10.416;2023-08-21T00:52:16;4.18;;;3.63;;
81523;SDS011;70954;49.500;10.416;2023-08-21T00:54:42;3.83;;;3.42;;
81523;SDS011;70954;49.500;10.416;2023-08-21T00:57:08;3.88;;;3.45;;
81523;SDS011;70954;49.500;10.416;2023-08-21T00:59:35;4.03;;;3.58;;
81523;SDS011;70954;49.500;10.416;2023-08-21T01:02:01;6.07;;;3.75;;
81523;SDS011;70954;49.500;10.416;2023-08-21T01:04:26;4.20;;;3.80;;
81523;SDS011;70954;49.500;10.416;2023-08-21T01:06:51;5.72;;;3.75;;
81523;SDS011;70954;49.500;10.416;2023-08-21T01:09:24;5.88;;;3.67;;
81523;SDS011;70954;49.500;10.416;2023-08-21T01:12:07;4.38;;;3.70;;
81523;SDS011;70954;49.500;10.416;2023-08-21T01:17:13;5.75;;;4.05;;
81523;SDS011;70954;49.500;10.416;2023-08-21T01:19:41;4.70;;;4.03;;
81523;SDS011;70954;49.500;10.416;2023-08-21T01:22:08;5.13;;;4.00;;
81523;SDS011;70954;49.500;10.416;2023-08-21T01:24:34;4.75;;;3.95;;
81523;SDS011;70954;49.500;10.416;2023-08-21T01:26:59;5.68;;;3.83;;
81523;SDS011;70954;49.500;10.416;2023-08-21T01:29:25;6.40;;;3.80;;
81523;SDS011;70954;49.500;10.416;2023-08-21T01:32:02;4.50;;;3.50;;
81523;SDS011;70954;49.500;10.416;2023-08-21T01:34:48;4.85;;;3.33;;
81523;SDS011;70954;49.500;10.416;2023-08-21T01:37:15;5.95;;;3.75;;
81523;SDS011;70954;49.500;10.416;2023-08-21T01:39:42;4.70;;;3.78;;
81523;SDS011;70954;49.500;10.416;2023-08-21T01:42:07;5.40;;;3.63;;
81523;SDS011;70954;49.500;10.416;2023-08-21T01:44:33;5.55;;;3.63;;
81523;SDS011;70954;49.500;10.416;2023-08-21T01:46:58;4.85;;;3.90;;
81523;SDS011;70954;49.500;10.416;2023-08-21T01:49:24;5.53;;;3.85;;
81523;SDS011;70954;49.500;10.416;2023-08-21T01:51:49;5.22;;;3.83;;
81523;SDS011;70954;49.500;10.416;2023-08-21T01:54:15;4.45;;;3.75;;
81523;SDS011;70954;49.500;10.416;2023-08-21T01:56:40;4.20;;;3.80;;
81523;SDS011;70954;49.500;10.416;2023-08-21T01:59:06;4.65;;;3.33;;
81523;SDS011;70954;49.500;10.416;2023-08-21T02:01:31;4.53;;;3.67;;
81523;SDS011;70954;49.500;10.416;2023-08-21T02:03:57;4.57;;;3.42;;
81523;SDS011;70954;49.500;10.416;2023-08-21T02:06:22;4.70;;;3.40;;
81523;SDS011;70954;49.500;10.416;2023-08-21T02:08:48;4.47;;;3.78;;
81523;SDS011;70954;49.500;10.416;2023-08-21T02:11:14;4.70;;;3.65;;
81523;SDS011;70954;49.500;10.416;2023-08-21T02:13:39;4.18;;;3.50;;
81523;SDS011;70954;49.500;10.416;2023-08-21T02:16:05;4.68;;;3.63;;
81523;SDS011;70954;49.500;10.416;2023-08-21T02:18:30;4.22;;;3.47;;
81523;SDS011;70954;49.500;10.416;2023-08-21T02:20:56;5.10;;;3.83;;
81523;SDS011;70954;49.500;10.416;2023-08-21T02:23:21;4.88;;;3.80;;
81523;SDS011;70954;49.500;10.416;2023-08-21T02:25:47;5.22;;;4.00;;
81523;SDS011;70954;49.500;10.416;2023-08-21T02:28:12;6.35;;;3.95;;
81523;SDS011;70954;49.500;10.416;2023-08-21T02:30:41;5.03;;;3.83;;
81523;SDS011;70954;49.500;10.416;2023-08-21T02:33:07;6.00;;;3.83;;
81523;SDS011;70954;49.500;10.416;2023-08-21T02:35:32;4.05;;;3.60;;
81523;SDS011;70954;49.500;10.416;2023-08-21T02:37:58;3.88;;;3.35;;
81523;SDS011;70954;49.500;10.416;2023-08-21T02:40:23;4.75;;;3.83;;
81523;SDS011;70954;49.500;10.416;2023-08-21T02:42:49;3.85;;;3.40;;
81523;SDS011;70954;49.500;10.416;2023-08-21T02:45:14;4.57;;;3.55;;
81523;SDS011;70954;49.500;10.416;2023-08-21T02:47:40;4.55;;;3.58;;
81523;SDS011;70954;49.500;10.416;2023-08-21T02:50:08;4.32;;;3.50;;
81523;SDS011;70954;49.500;10.416;2023-08-21T02:52:34;4.28;;;3.70;;
81523;SDS011;70954;49.500;10.416;2023-08-21T02:55:00;4.50;;;3.47;;
81523;SDS011;70954;49.500;10.416;2023-08-21T02:57:27;4.72;;;3.88;;
81523;SDS011;70954;49.500;10.416;2023-08-21T02:59:53;3.90;;;3.47;;
81523;SDS011;70954;49.500;10.416;2023-08-21T03:02:19;4.13;;;3.40;;
81523;SDS011;70954;49.500;10.416;2023-08-21T03:04:44;6.28;;;3.90;;
81523;SDS011;70954;49.500;10.416;2023-08-21T03:07:10;5.47;;;3.70;;
81523;SDS011;70954;49.500;10.416;2023-08-21T03:09:36;5.78;;;3.80;;
81523;SDS011;70954;49.500;10.416;2023-08-21T03:12:02;4.05;;;3.58;;
81523;SDS011;70954;49.500;10.416;2023-08-21T03:14:28;5.03;;;3.60;;
81523;SDS011;70954;49.500;10.416;2023-08-21T03:16:54;6.90;;;4.38;;
81523;SDS011;70954;49.500;10.416;2023-08-21T03:19:19;5.38;;;4.15;;
81523;SDS011;70954;49.500;10.416;2023-08-21T03:21:45;5.00;;;3.97;;
81523;SDS011;70954;49.500;10.416;2023-08-21T03:24:10;4.85;;;4.15;;
81523;SDS011;70954;49.500;10.416;2023-08-21T03:26:36;7.72;;;3.83;;
81523;SDS011;70954;49.500;10.416;2023-08-21T03:29:01;6.13;;;4.38;;
81523;SDS011;70954;49.500;10.416;2023-08-21T03:31:27;5.22;;;3.92;;
81523;SDS011;70954;49.500;10.416;2023-08-21T03:33:52;5.30;;;4.22;;
81523;SDS011;70954;49.500;10.416;2023-08-21T03:36:18;5.30;;;4.22;;
81523;SDS011;70954;49.500;10.416;2023-08-21T03:38:43;4.53;;;3.72;;
81523;SDS011;70954;49.500;10.416;2023-08-21T03:41:09;5.22;;;4.07;;
81523;SDS011;70954;49.500;10.416;2023-08-21T03:43:34;4.93;;;4.13;;
81523;SDS011;70954;49.500;10.416;2023-08-21T03:46:00;5.22;;;4.05;;
81523;SDS011;70954;49.500;10.416;2023-08-21T03:48:25;6.68;;;4.00;;
81523;SDS011;70954;49.500;10.416;2023-08-21T03:50:51;5.28;;;4.20;;
81523;SDS011;70954;49.500;10.416;2023-08-21T03:53:16;4.82;;;3.92;;
81523;SDS011;70954;49.500;10.416;2023-08-21T03:55:42;6.57;;;4.30;;
81523;SDS011;70954;49.500;10.416;2023-08-21T03:58:08;6.20;;;4.20;;
81523;SDS011;70954;49.500;10.416;2023-08-21T04:00:33;5.32;;;4.18;;
81523;SDS011;70954;49.500;10.416;2023-08-21T04:02:58;5.97;;;4.13;;
81523;SDS011;70954;49.500;10.416;2023-08-21T04:05:24;4.22;;;3.53;;
81523;SDS011;70954;49.500;10.416;2023-08-21T04:07:49;5.30;;;3.90;;
81523;SDS011;70954;49.500;10.416;2023-08-21T04:10:15;7.03;;;3.80;;
81523;SDS011;70954;49.500;10.416;2023-08-21T04:12:40;5.28;;;3.97;;
81523;SDS011;70954;49.500;10.416;2023-08-21T04:15:06;6.15;;;3.60;;
81523;SDS011;70954;49.500;10.416;2023-08-21T04:17:32;7.93;;;4.28;;
81523;SDS011;70954;49.500;10.416;2023-08-21T04:19:57;5.47;;;3.70;;
81523;SDS011;70954;49.500;10.416;2023-08-21T04:22:23;5.60;;;3.85;;
81523;SDS011;70954;49.500;10.416;2023-08-21T04:24:48;4.03;;;3.45;;
81523;SDS011;70954;49.500;10.416;2023-08-21T04:27:13;4.85;;;3.63;;
81523;SDS011;70954;49.500;10.416;2023-08-21T04:29:39;4.80;;;3.90;;
81523;SDS011;70954;49.500;10.416;2023-08-21T04:32:05;4.88;;;3.47;;
81523;SDS011;70954;49.500;10.416;2023-08-21T04:34:34;4.38;;;3.97;;
81523;SDS011;70954;49.500;10.416;2023-08-21T04:36:59;5.60;;;3.75;;
81523;SDS011;70954;49.500;10.416;2023-08-21T04:39:25;4.13;;;3.53;;
81523;SDS011;70954;49.500;10.416;2023-08-21T04:41:50;6.07;;;4.00;;
81523;SDS011;70954;49.500;10.416;2023-08-21T04:44:16;7.22;;;4.28;;
81523;SDS011;70954;49.500;10.416;2023-08-21T04:46:42;7.00;;;4.50;;
81523;SDS011;70954;49.500;10.416;2023-08-21T04:49:07;5.97;;;4.50;;
81523;SDS011;70954;49.500;10.416;2023-08-21T04:51:33;5.70;;;4.25;;
81523;SDS011;70954;49.500;10.416;2023-08-21T04:53:58;5.68;;;4.03;;
81523;SDS011;70954;49.500;10.416;2023-08-21T04:56:24;5.93;;;4.30;;
81523;SDS011;70954;49.500;10.416;2023-08-21T04:58:49;6.75;;;4.35;;
81523;SDS011;70954;49.500;10.416;2023-08-21T05:01:14;5.20;;;4.00;;
81523;SDS011;70954;49.500;10.416;2023-08-21T05:03:40;5.88;;;4.38;;
81523;SDS011;70954;49.500;10.416;2023-08-21T05:06:05;7.93;;;4.60;;
81523;SDS011;70954;49.500;10.416;2023-08-21T05:08:31;7.45;;;4.82;;
81523;SDS011;70954;49.500;10.416;2023-08-21T05:10:57;5.43;;;4.18;;
81523;SDS011;70954;49.500;10.416;2023-08-21T05:13:24;5.45;;;4.10;;
81523;SDS011;70954;49.500;10.416;2023-08-21T05:15:54;7.43;;;4.22;;
81523;SDS011;70954;49.500;10.416;2023-08-21T05:18:20;5.40;;;4.25;;
81523;SDS011;70954;49.500;10.416;2023-08-21T05:20:47;6.70;;;4.50;;
81523;SDS011;70954;49.500;10.416;2023-08-21T05:23:13;5.32;;;4.18;;
81523;SDS011;70954;49.500;10.416;2023-08-21T05:25:38;7.05;;;4.40;;
81523;SDS011;70954;49.500;10.416;2023-08-21T05:28:04;6.68;;;4.43;;
81523;SDS011;70954;49.500;10.416;2023-08-21T05:30:30;6.07;;;4.43;;
81523;SDS011;70954;49.500;10.416;2023-08-21T05:32:56;9.15;;;4.72;;
81523;SDS011;70954;49.500;10.416;2023-08-21T05:35:21;8.13;;;4.53;;
81523;SDS011;70954;49.500;10.416;2023-08-21T05:37:47;7.35;;;4.03;;
81523;SDS011;70954;49.500;10.416;2023-08-21T05:40:12;5.72;;;4.30;;
81523;SDS011;70954;49.500;10.416;2023-08-21T05:42:38;6.68;;;4.45;;
81523;SDS011;70954;49.500;10.416;2023-08-21T05:45:04;6.20;;;4.32;;
81523;SDS011;70954;49.500;10.416;2023-08-21T05:47:30;5.00;;;3.95;;
81523;SDS011;70954;49.500;10.416;2023-08-21T05:49:55;6.20;;;4.03;;
81523;SDS011;70954;49.500;10.416;2023-08-21T05:52:21;5.43;;;3.92;;
81523;SDS011;70954;49.500;10.416;2023-08-21T05:54:47;5.47;;;4.13;;
81523;SDS011;70954;49.500;10.416;2023-08-21T05:57:12;8.63;;;4.65;;
81523;SDS011;70954;49.500;10.416;2023-08-21T05:59:42;7.55;;;4.05;;
81523;SDS011;70954;49.500;10.416;2023-08-21T06:02:12;6.13;;;3.90;;
81523;SDS011;70954;49.500;10.416;2023-08-21T06:04:39;5.93;;;3.97;;
81523;SDS011;70954;49.500;10.416;2023-08-21T06:07:05;8.93;;;3.97;;
81523;SDS011;70954;49.500;10.416;2023-08-21T06:09:31;6.40;;;4.78;;
81523;SDS011;70954;49.500;10.416;2023-08-21T06:11:57;7.93;;;4.70;;
81523;SDS011;70954;49.500;10.416;2023-08-21T06:14:22;6.38;;;4.68;;
81523;SDS011;70954;49.500;10.416;2023-08-21T06:16:48;5.35;;;3.78;;
81523;SDS011;70954;49.500;10.416;2023-08-21T06:19:13;7.50;;;4.40;;
81523;SDS011;70954;49.500;10.416;2023-08-21T06:21:39;6.50;;;4.47;;
81523;SDS011;70954;49.500;10.416;2023-08-21T06:24:04;7.32;;;4.72;;
81523;SDS011;70954;49.500;10.416;2023-08-21T06:26:29;7.50;;;5.32;;
81523;SDS011;70954;49.500;10.416;2023-08-21T06:28:55;6.63;;;5.05;;
81523;SDS011;70954;49.500;10.416;2023-08-21T06:31:20;7.45;;;5.43;;
81523;SDS011;70954;49.500;10.416;2023-08-21T06:33:46;6.32;;;4.78;;
81523;SDS011;70954;49.500;10.416;2023-08-21T06:36:11;6.97;;;4.90;;
81523;SDS011;70954;49.500;10.416;2023-08-21T06:38:37;9.07;;;5.70;;
81523;SDS011;70954;49.500;10.416;2023-08-21T06:41:02;6.72;;;5.25;;
81523;SDS011;70954;49.500;10.416;2023-08-21T06:43:28;6.80;;;5.20;;
81523;SDS011;70954;49.500;10.416;2023-08-21T06:45:53;8.70;;;5.80;;
81523;SDS011;70954;49.500;10.416;2023-08-21T06:48:19;8.57;;;5.78;;
81523;SDS011;70954;49.500;10.416;2023-08-21T06:50:44;7.80;;;5.88;;
81523;SDS011;70954;49.500;10.416;2023-08-21T06:53:10;8.27;;;6.30;;
81523;SDS011;70954;49.500;10.416;2023-08-21T06:55:35;8.13;;;6.20;;
81523;SDS011;70954;49.500;10.416;2023-08-21T06:58:01;9.88;;;6.70;;
81523;SDS011;70954;49.500;10.416;2023-08-21T07:00:26;9.73;;;6.53;;
81523;SDS011;70954;49.500;10.416;2023-08-21T07:02:51;10.00;;;6.68;;
81523;SDS011;70954;49.500;10.416;2023-08-21T07:05:17;9.30;;;6.60;;
81523;SDS011;70954;49.500;10.416;2023-08-21T07:07:42;11.02;;;6.65;;
81523;SDS011;70954;49.500;10.416;2023-08-21T07:10:08;9.57;;;6.43;;
81523;SDS011;70954;49.500;10.416;2023-08-21T07:12:34;8.55;;;6.40;;
81523;SDS011;70954;49.500;10.416;2023-08-21T07:14:59;9.80;;;6.75;;
81523;SDS011;70954;49.500;10.416;2023-08-21T07:17:24;8.00;;;6.47;;
81523;SDS011;70954;49.500;10.416;2023-08-21T07:19:50;7.90;;;5.80;;
81523;SDS011;70954;49.500;10.416;2023-08-21T07:22:15;8.52;;;6.47;;
81523;SDS011;70954;49.500;10.416;2023-08-21T07:24:41;10.38;;;6.97;;
81523;SDS011;70954;49.500;10.416;2023-08-21T07:27:06;8.45;;;6.43;;
81523;SDS011;70954;49.500;10.416;2023-08-21T07:29:32;9.50;;;7.00;;
81523;SDS011;70954;49.500;10.416;2023-08-21T07:31:57;7.90;;;5.65;;
81523;SDS011;70954;49.500;10.416;2023-08-21T07:34:23;8.98;;;6.95;;
81523;SDS011;70954;49.500;10.416;2023-08-21T07:36:48;9.27;;;6.57;;
81523;SDS011;70954;49.500;10.416;2023-08-21T07:39:13;9.23;;;7.05;;
81523;SDS011;70954;49.500;10.416;2023-08-21T07:41:39;8.70;;;6.93;;
81523;SDS011;70954;49.500;10.416;2023-08-21T07:44:04;10.43;;;6.97;;
81523;SDS011;70954;49.500;10.416;2023-08-21T07:46:30;8.73;;;7.43;;
81523;SDS011;70954;49.500;10.416;2023-08-21T07:48:55;8.07;;;6.63;;
81523;SDS011;70954;49.500;10.416;2023-08-21T07:51:21;8.95;;;6.75;;
81523;SDS011;70954;49.500;10.416;2023-08-21T07:53:46;7.88;;;6.53;;
81523;SDS011;70954;49.500;10.416;2023-08-21T07:56:11;8.27;;;6.65;;
81523;SDS011;70954;49.500;10.416;2023-08-21T07:58:37;12.10;;;6.50;;
81523;SDS011;70954;49.500;10.416;2023-08-21T08:01:02;8.13;;;6.20;;
81523;SDS011;70954;49.500;10.416;2023-08-21T08:03:28;10.93;;;6.68;;
81523;SDS011;70954;49.500;10.416;2023-08-21T08:05:53;7.55;;;6.45;;
81523;SDS011;70954;49.500;10.416;2023-08-21T08:08:19;7.85;;;6.63;;
81523;SDS011;70954;49.500;10.416;2023-08-21T08:10:44;8.02;;;6.47;;
81523;SDS011;70954;49.500;10.416;2023-08-21T08:13:10;6.95;;;5.70;;
81523;SDS011;70954;49.500;10.416;2023-08-21T08:15:35;7.60;;;6.30;;
81523;SDS011;70954;49.500;10.416;2023-08-21T08:18:04;8.32;;;6.03;;
81523;SDS011;70954;49.500;10.416;2023-08-21T08:20:30;8.15;;;6.25;;
81523;SDS011;70954;49.500;10.416;2023-08-21T08:22:55;7.40;;;5.93;;
81523;SDS011;70954;49.500;10.416;2023-08-21T08:25:21;7.40;;;6.30;;
81523;SDS011;70954;49.500;10.416;2023-08-21T08:27:47;8.50;;;6.03;;
81523;SDS011;70954;49.500;10.416;2023-08-21T08:30:13;6.68;;;5.97;;
81523;SDS011;70954;49.500;10.416;2023-08-21T08:32:40;7.55;;;6.00;;
81523;SDS011;70954;49.500;10.416;2023-08-21T08:35:07;12.70;;;6.38;;
81523;SDS011;70954;49.500;10.416;2023-08-21T08:37:32;7.85;;;5.93;;
81523;SDS011;70954;49.500;10.416;2023-08-21T08:39:58;7.97;;;6.40;;
81523;SDS011;70954;49.500;10.416;2023-08-21T08:42:23;7.35;;;6.53;;
81523;SDS011;70954;49.500;10.416;2023-08-21T08:44:49;8.18;;;6.55;;
81523;SDS011;70954;49.500;10.416;2023-08-21T08:47:15;7.68;;;6.45;;
81523;SDS011;70954;49.500;10.416;2023-08-21T08:49:42;8.40;;;6.40;;
81523;SDS011;70954;49.500;10.416;2023-08-21T08:52:07;8.38;;;6.93;;
81523;SDS011;70954;49.500;10.416;2023-08-21T08:54:34;8.00;;;6.43;;
81523;SDS011;70954;49.500;10.416;2023-08-21T08:57:00;8.13;;;6.07;;
81523;SDS011;70954;49.500;10.416;2023-08-21T08:59:25;7.90;;;6.55;;
81523;SDS011;70954;49.500;10.416;2023-08-21T09:01:51;7.47;;;5.78;;
81523;SDS011;70954;49.500;10.416;2023-08-21T09:04:16;7.13;;;6.03;;
81523;SDS011;70954;49.500;10.416;2023-08-21T09:06:42;7.75;;;6.10;;
81523;SDS011;70954;49.500;10.416;2023-08-21T09:09:08;8.48;;;5.90;;
81523;SDS011;70954;49.500;10.416;2023-08-21T09:11:33;8.07;;;6.95;;
81523;SDS011;70954;49.500;10.416;2023-08-21T09:13:59;9.35;;;6.90;;
81523;SDS011;70954;49.500;10.416;2023-08-21T09:16:25;7.32;;;6.47;;
81523;SDS011;70954;49.500;10.416;2023-08-21T09:18:54;9.27;;;6.65;;
81523;SDS011;70954;49.500;10.416;2023-08-21T09:21:21;8.02;;;6.43;;
81523;SDS011;70954;49.500;10.416;2023-08-21T09:23:48;9.18;;;6.32;;
81523;SDS011;70954;49.500;10.416;2023-08-21T09:26:21;6.75;;;5.68;;
81523;SDS011;70954;49.500;10.416;2023-08-21T09:28:47;6.03;;;5.18;;
81523;SDS011;70954;49.500;10.416;2023-08-21T09:31:14;7.10;;;5.20;;
81523;SDS011;70954;49.500;10.416;2023-08-21T09:33:39;6.35;;;5.00;;
81523;SDS011;70954;49.500;10.416;2023-08-21T09:36:05;7.65;;;4.60;;
81523;SDS011;70954;49.500;10.416;2023-08-21T09:38:31;6.72;;;5.05;;
81523;SDS011;70954;49.500;10.416;2023-08-21T09:40:59;7.05;;;4.75;;
81523;SDS011;70954;49.500;10.416;2023-08-21T09:43:24;5.70;;;4.40;;
81523;SDS011;70954;49.500;10.416;2023-08-21T09:45:50;5.90;;;4.30;;
81523;SDS011;70954;49.500;10.416;2023-08-21T09:48:17;4.90;;;4.40;;
81523;SDS011;70954;49.500;10.416;2023-08-21T09:50:44;5.28;;;4.38;;
81523;SDS011;70954;49.500;10.416;2023-08-21T09:53:11;5.63;;;4.38;;
81523;SDS011;70954;49.500;10.416;2023-08-21T09:55:37;5.00;;;4.50;;
81523;SDS011;70954;49.500;10.416;2023-08-21T09:58:05;5.47;;;4.32;;
81523;SDS011;70954;49.500;10.416;2023-08-21T10:00:35;6.85;;;4.75;;
81523;SDS011;70954;49.500;10.416;2023-08-21T10:03:02;5.03;;;4.15;;
81523;SDS011;70954;49.500;10.416;2023-08-21T10:05:32;4.75;;;3.97;;
81523;SDS011;70954;49.500;10.416;2023-08-21T10:08:02;4.45;;;4.05;;
81523;SDS011;70954;49.500;10.416;2023-08-21T10:10:32;3.80;;;3.13;;
81523;SDS011;70954;49.500;10.416;2023-08-21T10:13:02;3.97;;;3.58;;
81523;SDS011;70954;49.500;10.416;2023-08-21T10:15:28;5.30;;;3.72;;
81523;SDS011;70954;49.500;10.416;2023-08-21T10:17:54;4.05;;;3.63;;
81523;SDS011;70954;49.500;10.416;2023-08-21T10:20:21;3.83;;;3.30;;
81523;SDS011;70954;49.500;10.416;2023-08-21T10:22:52;4.65;;;3.78;;
81523;SDS011;70954;49.500;10.416;2023-08-21T10:25:23;4.93;;;3.83;;
81523;SDS011;70954;49.500;10.416;2023-08-21T10:27:50;7.28;;;3.33;;
81523;SDS011;70954;49.500;10.416;2023-08-21T10:30:24;3.75;;;3.28;;
81523;SDS011;70954;49.500;10.416;2023-08-21T10:32:51;4.22;;;3.60;;
81523;SDS011;70954;49.500;10.416;2023-08-21T10:35:22;4.30;;;3.67;;
81523;SDS011;70954;49.500;10.416;2023-08-21T10:38:09;4.18;;;3.75;;
81523;SDS011;70954;49.500;10.416;2023-08-21T10:40:39;5.05;;;3.80;;
81523;SDS011;70954;49.500;10.416;2023-08-21T10:46:02;4.20;;;3.70;;
81523;SDS011;70954;49.500;10.416;2023-08-21T10:48:27;3.78;;;3.25;;
81523;SDS011;70954;49.500;10.416;2023-08-21T10:50:53;3.90;;;3.40;;
81523;SDS011;70954;49.500;10.416;2023-08-21T10:53:19;3.78;;;3.10;;
81523;SDS011;70954;49.500;10.416;2023-08-21T10:55:52;3.90;;;3.50;;
81523;SDS011;70954;49.500;10.416;2023-08-21T10:58:21;4.30;;;3.13;;
81523;SDS011;70954;49.500;10.416;2023-08-21T11:00:47;4.72;;;3.72;;
81523;SDS011;70954;49.500;10.416;2023-08-21T11:03:20;4.70;;;3.70;;
81523;SDS011;70954;49.500;10.416;2023-08-21T11:05:59;4.03;;;3.33;;
81523;SDS011;70954;49.500;10.416;2023-08-21T11:08:28;4.15;;;3.10;;
81523;SDS011;70954;49.500;10.416;2023-08-21T11:10:54;3.83;;;2.90;;
81523;SDS011;70954;49.500;10.416;2023-08-21T11:13:22;3.95;;;2.90;;
81523;SDS011;70954;49.500;10.416;2023-08-21T11:15:48;2.58;;;2.38;;
81523;SDS011;70954;49.500;10.416;2023-08-21T11:18:14;4.18;;;3.30;;
81523;SDS011;70954;49.500;10.416;2023-08-21T11:20:39;3.08;;;2.78;;
81523;SDS011;70954;49.500;10.416;2023-08-21T11:23:05;3.22;;;2.80;;
81523;SDS011;70954;49.500;10.416;2023-08-21T11:25:32;3.53;;;3.03;;
81523;SDS011;70954;49.500;10.416;2023-08-21T11:27:58;4.28;;;3.10;;
81523;SDS011;70954;49.500;10.416;2023-08-21T11:30:24;4.80;;;3.10;;
81523;SDS011;70954;49.500;10.416;2023-08-21T11:33:04;3.35;;;3.00;;
81523;SDS011;70954;49.500;10.416;2023-08-21T11:35:30;3.70;;;3.15;;
81523;SDS011;70954;49.500;10.416;2023-08-21T11:37:55;4.63;;;3.00;;
81523;SDS011;70954;49.500;10.416;2023-08-21T11:40:21;3.78;;;3.15;;
81523;SDS011;70954;49.500;10.416;2023-08-21T11:42:46;3.15;;;2.85;;
81523;SDS011;70954;49.500;10.416;2023-08-21T11:45:17;3.40;;;3.10;;
81523;SDS011;70954;49.500;10.416;2023-08-21T11:47:45;3.25;;;2.80;;
81523;SDS011;70954;49.500;10.416;2023-08-21T11:50:11;4.43;;;2.45;;
81523;SDS011;70954;49.500;10.416;2023-08-21T11:52:36;4.07;;;2.75;;
81523;SDS011;70954;49.500;10.416;2023-08-21T11:55:02;4.70;;;2.60;;
81523;SDS011;70954;49.500;10.416;2023-08-21T11:57:33;3.40;;;3.10;;
81523;SDS011;70954;49.500;10.416;2023-08-21T11:59:58;4.15;;;2.95;;
81523;SDS011;70954;49.500;10.416;2023-08-21T12:02:24;3.28;;;2.95;;
81523;SDS011;70954;49.500;10.416;2023-08-21T12:05:01;3.72;;;3.20;;
81523;SDS011;70954;49.500;10.416;2023-08-21T12:07:28;5.10;;;2.70;;
81523;SDS011;70954;49.500;10.416;2023-08-21T12:09:54;4.60;;;3.17;;
81523;SDS011;70954;49.500;10.416;2023-08-21T12:12:19;4.68;;;3.22;;
81523;SDS011;70954;49.500;10.416;2023-08-21T12:14:45;3.97;;;3.20;;
81523;SDS011;70954;49.500;10.416;2023-08-21T12:17:11;3.92;;;2.95;;
81523;SDS011;70954;49.500;10.416;2023-08-21T12:19:36;4.88;;;3.80;;
81523;SDS011;70954;49.500;10.416;2023-08-21T12:22:02;3.33;;;3.03;;
81523;SDS011;70954;49.500;10.416;2023-08-21T12:24:28;4.05;;;3.20;;
81523;SDS011;70954;49.500;10.416;2023-08-21T12:26:53;3.38;;;2.70;;
81523;SDS011;70954;49.500;10.416;2023-08-21T12:29:19;4.03;;;2.88;;
81523;SDS011;70954;49.500;10.416;2023-08-21T12:31:44;3.55;;;3.20;;
81523;SDS011;70954;49.500;10.416;2023-08-21T12:34:10;4.10;;;3.22;;
81523;SDS011;70954;49.500;10.416;2023-08-21T12:36:35;3.70;;;3.10;;
81523;SDS011;70954;49.500;10.416;2023-08-21T12:39:01;3.35;;;2.95;;
81523;SDS011;70954;49.500;10.416;2023-08-21T12:41:27;4.13;;;3.35;;
81523;SDS011;70954;49.500;10.416;2023-08-21T12:43:52;3.95;;;2.97;;
81523;SDS011;70954;49.500;10.416;2023-08-21T12:46:17;3.63;;;3.03;;
81523;SDS011;70954;49.500;10.416;2023-08-21T12:48:43;3.53;;;3.08;;
81523;SDS011;70954;49.500;10.416;2023-08-21T12:51:08;3.63;;;2.60;;
81523;SDS011;70954;49.500;10.416;2023-08-21T12:53:34;4.55;;;3.10;;
81523;SDS011;70954;49.500;10.416;2023-08-21T12:55:59;3.25;;;2.90;;
81523;SDS011;70954;49.500;10.416;2023-08-21T12:58:25;4.28;;;2.70;;
81523;SDS011;70954;49.500;10.416;2023-08-21T13:00:51;4.15;;;2.95;;
81523;SDS011;70954;49.500;10.416;2023-08-21T13:03:16;2.80;;;2.50;;
81523;SDS011;70954;49.500;10.416;2023-08-21T13:05:42;4.85;;;2.83;;
81523;SDS011;70954;49.500;10.416;2023-08-21T13:08:07;4.15;;;2.30;;
81523;SDS011;70954;49.500;10.416;2023-08-21T13:10:33;3.40;;;2.55;;
81523;SDS011;70954;49.500;10.416;2023-08-21T13:12:58;3.20;;;2.70;;
81523;SDS011;70954;49.500;10.416;2023-08-21T13:15:24;4.22;;;2.45;;
81523;SDS011;70954;49.500;10.416;2023-08-21T13:17:49;4.32;;;3.03;;
81523;SDS011;70954;49.500;10.416;2023-08-21T13:20:14;3.08;;;2.33;;
81523;SDS011;70954;49.500;10.416;2023-08-21T13:22:44;2.83;;;2.45;;
81523;SDS011;70954;49.500;10.416;2023-08-21T13:25:10;3.08;;;2.35;;
81523;SDS011;70954;49.500;10.416;2023-08-21T13:27:35;3.63;;;2.45;;
81523;SDS011;70954;49.500;10.416;2023-08-21T13:30:01;3.33;;;2.50;;
81523;SDS011;70954;49.500;10.416;2023-08-21T13:32:26;3.53;;;2.40;;
81523;SDS011;70954;49.500;10.416;2023-08-21T13:34:52;3.00;;;2.15;;
81523;SDS011;70954;49.500;10.416;2023-08-21T13:37:17;4.70;;;2.08;;
81523;SDS011;70954;49.500;10.416;2023-08-21T13:39:42;2.40;;;1.90;;
81523;SDS011;70954;49.500;10.416;2023-08-21T13:42:08;2.45;;;1.83;;
81523;SDS011;70954;49.500;10.416;2023-08-21T13:44:33;2.88;;;1.88;;
81523;SDS011;70954;49.500;10.416;2023-08-21T13:46:59;2.50;;;2.03;;
81523;SDS011;70954;49.500;10.416;2023-08-21T13:49:24;2.30;;;2.10;;
81523;SDS011;70954;49.500;10.416;2023-08-21T13:51:50;3.30;;;2.03;;
81523;SDS011;70954;49.500;10.416;2023-08-21T13:54:15;2.05;;;1.85;;
81523;SDS011;70954;49.500;10.416;2023-08-21T13:56:41;2.38;;;1.75;;
81523;SDS011;70954;49.500;10.416;2023-08-21T13:59:06;2.42;;;2.17;;
81523;SDS011;70954;49.500;10.416;2023-08-21T14:01:31;2.85;;;2.05;;
81523;SDS011;70954;49.500;10.416;2023-08-21T14:03:57;2.90;;;2.00;;
81523;SDS011;70954;49.500;10.416;2023-08-21T14:06:22;2.70;;;2.25;;
81523;SDS011;70954;49.500;10.416;2023-08-21T14:08:48;2.90;;;2.38;;
81523;SDS011;70954;49.500;10.416;2023-08-21T14:11:13;3.90;;;2.80;;
81523;SDS011;70954;49.500;10.416;2023-08-21T14:13:39;4.20;;;2.50;;
81523;SDS011;70954;49.500;10.416;2023-08-21T14:16:04;2.47;;;2.22;;
81523;SDS011;70954;49.500;10.416;2023-08-21T14:18:30;2.75;;;2.20;;
81523;SDS011;70954;49.500;10.416;2023-08-21T14:20:55;2.30;;;2.10;;
81523;SDS011;70954;49.500;10.416;2023-08-21T14:23:20;2.22;;;2.00;;
81523;SDS011;70954;49.500;10.416;2023-08-21T14:25:46;2.63;;;2.13;;
81523;SDS011;70954;49.500;10.416;2023-08-21T14:28:11;2.60;;;2.15;;
81523;SDS011;70954;49.500;10.416;2023-08-21T14:30:37;3.17;;;2.25;;
81523;SDS011;70954;49.500;10.416;2023-08-21T14:33:02;2.38;;;2.17;;